sensor_id;sensor_type;location;lat;lon;timestamp;P1;durP1;ratioP1;P2;durP2;ratioP2
15831;SDS011;8016;49.928;9.372;2024-01-15T00:01:56;40.23;;;19.60;;
15831;SDS011;8016;49.928;9.372;2024-01-15T00:04:22;41.10;;;19.43;;
15831;SDS011;8016;49.928;9.372;2024-01-15T00:06:49;49.93;;;25.50;;
15831;SDS011;8016;49.928;9.372;2024-01-15T00:09:15;37.60;;;19.07;;
15831;SDS011;8016;49.928;9.372;2024-01-15T00:11:41;60.30;;;27.17;;
15831;SDS011;8016;49.928;9.372;2024-01-15T00:14:08;40.33;;;20.00;;
15831;SDS011;8016;49.928;9.372;2024-01-15T00:16:34;69.13;;;33.27;;
15831;SDS011;8016;49.928;9.372;2024-01-15T00:19:00;40.67;;;19.97;;
15831;SDS011;8016;49.928;9.372;2024-01-15T00:21:26;37.80;;;19.13;;
15831;SDS011;8016;49.928;9.372;2024-01-15T00:23:53;37.57;;;18.10;;
15831;SDS011;8016;49.928;9.372;2024-01-15T00:26:19;33.00;;;18.63;;
15831;SDS011;8016;49.928;9.372;2024-01-15T00:28:45;35.87;;;17.70;;
15831;SDS011;8016;49.928;9.372;2024-01-15T00:31:11;37.77;;;18.30;;
15831;SDS011;8016;49.928;9.372;2024-01-15T00:33:36;35.33;;;19.23;;
15831;SDS011;8016;49.928;9.372;2024-01-15T00:36:03;34.07;;;19.07;;
15831;SDS011;8016;49.928;9.372;2024-01-15T00:38:29;36.13;;;17.13;;
15831;SDS011;8016;49.928;9.372;2024-01-15T00:40:55;43.50;;;19.83;;
15831;SDS011;8016;49.928;9.372;2024-01-15T00:43:21;37.37;;;18.93;;
15831;SDS011;8016;49.928;9.372;2024-01-15T00:45:47;45.10;;;19.87;;
15831;SDS011;8016;49.928;9.372;2024-01-15T00:48:13;37.07;;;19.30;;
15831;SDS011;8016;49.928;9.372;2024-01-15T00:50:39;86.93;;;33.60;;
15831;SDS011;8016;49.928;9.372;2024-01-15T00:53:05;41.13;;;20.20;;
15831;SDS011;8016;49.928;9.372;2024-01-15T00:55:31;34.90;;;17.63;;
15831;SDS011;8016;49.928;9.372;2024-01-15T00:57:57;63.50;;;28.57;;
15831;SDS011;8016;49.928;9.372;2024-01-15T01:00:22;41.63;;;18.97;;
15831;SDS011;8016;49.928;9.372;2024-01-15T01:02:48;38.70;;;17.43;;
15831;SDS011;8016;49.928;9.372;2024-01-15T01:05:14;35.60;;;17.37;;
15831;SDS011;8016;49.928;9.372;2024-01-15T01:07:40;29.80;;;16.47;;
15831;SDS011;8016;49.928;9.372;2024-01-15T01:10:06;36.03;;;18.23;;
15831;SDS011;8016;49.928;9.372;2024-01-15T01:12:32;38.40;;;17.77;;
15831;SDS011;8016;49.928;9.372;2024-01-15T01:14:58;36.47;;;21.10;;
15831;SDS011;8016;49.928;9.372;2024-01-15T01:17:25;34.40;;;17.87;;
15831;SDS011;8016;49.928;9.372;2024-01-15T01:19:51;31.40;;;17.10;;
15831;SDS011;8016;49.928;9.372;2024-01-15T01:22:17;34.30;;;17.47;;
15831;SDS011;8016;49.928;9.372;2024-01-15T01:24:43;34.37;;;17.63;;
15831;SDS011;8016;49.928;9.372;2024-01-15T01:27:09;31.03;;;15.43;;
15831;SDS011;8016;49.928;9.372;2024-01-15T01:29:35;32.00;;;16.73;;
15831;SDS011;8016;49.928;9.372;2024-01-15T01:32:00;29.63;;;15.23;;
15831;SDS011;8016;49.928;9.372;2024-01-15T01:34:26;34.20;;;17.33;;
15831;SDS011;8016;49.928;9.372;2024-01-15T01:36:52;29.03;;;15.57;;
15831;SDS011;8016;49.928;9.372;2024-01-15T01:39:18;30.73;;;16.40;;
15831;SDS011;8016;49.928;9.372;2024-01-15T01:41:44;27.43;;;15.50;;
15831;SDS011;8016;49.928;9.372;2024-01-15T01:44:10;26.73;;;14.50;;
15831;SDS011;8016;49.928;9.372;2024-01-15T01:46:36;26.43;;;15.33;;
15831;SDS011;8016;49.928;9.372;2024-01-15T01:49:05;29.83;;;16.13;;
15831;SDS011;8016;49.928;9.372;2024-01-15T01:51:32;28.30;;;14.67;;
15831;SDS011;8016;49.928;9.372;2024-01-15T01:53:59;28.30;;;15.17;;
15831;SDS011;8016;49.928;9.372;2024-01-15T01:56:25;25.13;;;14.63;;
15831;SDS011;8016;49.928;9.372;2024-01-15T01:58:52;28.47;;;15.37;;
15831;SDS011;8016;49.928;9.372;2024-01-15T02:01:18;26.60;;;13.93;;
15831;SDS011;8016;49.928;9.372;2024-01-15T02:03:44;21.63;;;12.37;;
15831;SDS011;8016;49.928;9.372;2024-01-15T02:06:10;27.27;;;13.40;;
15831;SDS011;8016;49.928;9.372;2024-01-15T02:08:37;21.67;;;12.33;;
15831;SDS011;8016;49.928;9.372;2024-01-15T02:11:03;24.83;;;13.23;;
15831;SDS011;8016;49.928;9.372;2024-01-15T02:13:29;25.57;;;13.70;;
15831;SDS011;8016;49.928;9.372;2024-01-15T02:15:55;24.53;;;14.67;;
15831;SDS011;8016;49.928;9.372;2024-01-15T02:18:21;21.63;;;12.47;;
15831;SDS011;8016;49.928;9.372;2024-01-15T02:20:47;24.07;;;13.27;;
15831;SDS011;8016;49.928;9.372;2024-01-15T02:23:13;23.17;;;13.23;;
15831;SDS011;8016;49.928;9.372;2024-01-15T02:25:40;22.03;;;13.07;;
15831;SDS011;8016;49.928;9.372;2024-01-15T02:28:08;22.03;;;13.27;;
15831;SDS011;8016;49.928;9.372;2024-01-15T02:30:38;23.57;;;13.70;;
15831;SDS011;8016;49.928;9.372;2024-01-15T02:33:04;23.87;;;13.07;;
15831;SDS011;8016;49.928;9.372;2024-01-15T02:35:31;25.23;;;13.93;;
15831;SDS011;8016;49.928;9.372;2024-01-15T02:37:57;22.27;;;13.10;;
15831;SDS011;8016;49.928;9.372;2024-01-15T02:40:23;26.10;;;14.23;;
15831;SDS011;8016;49.928;9.372;2024-01-15T02:42:49;22.37;;;12.63;;
15831;SDS011;8016;49.928;9.372;2024-01-15T02:45:15;25.17;;;13.23;;
15831;SDS011;8016;49.928;9.372;2024-01-15T02:47:41;19.80;;;12.23;;
15831;SDS011;8016;49.928;9.372;2024-01-15T02:50:07;23.57;;;13.80;;
15831;SDS011;8016;49.928;9.372;2024-01-15T02:52:33;21.13;;;13.13;;
15831;SDS011;8016;49.928;9.372;2024-01-15T02:54:59;22.33;;;12.83;;
15831;SDS011;8016;49.928;9.372;2024-01-15T02:57:25;23.70;;;13.90;;
15831;SDS011;8016;49.928;9.372;2024-01-15T02:59:51;23.27;;;13.97;;
15831;SDS011;8016;49.928;9.372;2024-01-15T03:02:17;26.57;;;13.77;;
15831;SDS011;8016;49.928;9.372;2024-01-15T03:04:46;19.60;;;11.80;;
15831;SDS011;8016;49.928;9.372;2024-01-15T03:07:12;24.83;;;13.43;;
15831;SDS011;8016;49.928;9.372;2024-01-15T03:09:38;24.93;;;13.27;;
15831;SDS011;8016;49.928;9.372;2024-01-15T03:12:04;25.07;;;13.40;;
15831;SDS011;8016;49.928;9.372;2024-01-15T03:14:30;22.50;;;13.57;;
15831;SDS011;8016;49.928;9.372;2024-01-15T03:16:56;25.10;;;13.17;;
15831;SDS011;8016;49.928;9.372;2024-01-15T03:19:22;29.67;;;13.00;;
15831;SDS011;8016;49.928;9.372;2024-01-15T03:21:48;23.67;;;12.80;;
15831;SDS011;8016;49.928;9.372;2024-01-15T03:24:14;21.80;;;12.57;;
15831;SDS011;8016;49.928;9.372;2024-01-15T03:26:40;27.23;;;13.50;;
15831;SDS011;8016;49.928;9.372;2024-01-15T03:29:06;26.40;;;13.43;;
15831;SDS011;8016;49.928;9.372;2024-01-15T03:31:33;23.13;;;12.23;;
15831;SDS011;8016;49.928;9.372;2024-01-15T03:33:59;23.53;;;12.47;;
15831;SDS011;8016;49.928;9.372;2024-01-15T03:36:24;24.57;;;12.47;;
15831;SDS011;8016;49.928;9.372;2024-01-15T03:38:50;21.97;;;11.93;;
15831;SDS011;8016;49.928;9.372;2024-01-15T03:41:16;22.93;;;13.10;;
15831;SDS011;8016;49.928;9.372;2024-01-15T03:43:42;24.57;;;12.97;;
15831;SDS011;8016;49.928;9.372;2024-01-15T03:46:08;24.27;;;12.80;;
15831;SDS011;8016;49.928;9.372;2024-01-15T03:48:34;21.23;;;11.90;;
15831;SDS011;8016;49.928;9.372;2024-01-15T03:51:00;21.37;;;12.87;;
15831;SDS011;8016;49.928;9.372;2024-01-15T03:53:26;25.37;;;13.90;;
15831;SDS011;8016;49.928;9.372;2024-01-15T03:55:52;24.67;;;14.57;;
15831;SDS011;8016;49.928;9.372;2024-01-15T03:58:18;26.40;;;13.60;;
15831;SDS011;8016;49.928;9.372;2024-01-15T04:00:44;21.27;;;12.27;;
15831;SDS011;8016;49.928;9.372;2024-01-15T04:03:10;21.37;;;13.13;;
15831;SDS011;8016;49.928;9.372;2024-01-15T04:05:36;22.60;;;12.20;;
15831;SDS011;8016;49.928;9.372;2024-01-15T04:08:02;25.50;;;14.10;;
15831;SDS011;8016;49.928;9.372;2024-01-15T04:10:28;24.10;;;14.00;;
15831;SDS011;8016;49.928;9.372;2024-01-15T04:12:54;21.63;;;12.50;;
15831;SDS011;8016;49.928;9.372;2024-01-15T04:15:20;23.00;;;11.97;;
15831;SDS011;8016;49.928;9.372;2024-01-15T04:17:46;23.17;;;12.83;;
15831;SDS011;8016;49.928;9.372;2024-01-15T04:20:12;21.77;;;12.17;;
15831;SDS011;8016;49.928;9.372;2024-01-15T04:22:38;20.00;;;12.63;;
15831;SDS011;8016;49.928;9.372;2024-01-15T04:25:04;24.27;;;12.47;;
15831;SDS011;8016;49.928;9.372;2024-01-15T04:27:30;21.23;;;12.67;;
15831;SDS011;8016;49.928;9.372;2024-01-15T04:29:56;22.13;;;13.20;;
15831;SDS011;8016;49.928;9.372;2024-01-15T04:32:22;23.70;;;12.27;;
15831;SDS011;8016;49.928;9.372;2024-01-15T04:34:48;22.10;;;12.23;;
15831;SDS011;8016;49.928;9.372;2024-01-15T04:37:14;21.83;;;12.67;;
15831;SDS011;8016;49.928;9.372;2024-01-15T04:39:40;24.07;;;11.90;;
15831;SDS011;8016;49.928;9.372;2024-01-15T04:42:06;24.00;;;12.93;;
15831;SDS011;8016;49.928;9.372;2024-01-15T04:44:32;20.30;;;12.60;;
15831;SDS011;8016;49.928;9.372;2024-01-15T04:46:58;22.17;;;12.30;;
15831;SDS011;8016;49.928;9.372;2024-01-15T04:49:24;20.43;;;12.03;;
15831;SDS011;8016;49.928;9.372;2024-01-15T04:51:52;21.43;;;12.27;;
15831;SDS011;8016;49.928;9.372;2024-01-15T04:54:18;24.63;;;12.57;;
15831;SDS011;8016;49.928;9.372;2024-01-15T04:56:45;21.57;;;12.97;;
15831;SDS011;8016;49.928;9.372;2024-01-15T04:59:11;25.10;;;12.47;;
15831;SDS011;8016;49.928;9.372;2024-01-15T05:01:37;19.80;;;11.27;;
15831;SDS011;8016;49.928;9.372;2024-01-15T05:04:03;20.70;;;11.87;;
15831;SDS011;8016;49.928;9.372;2024-01-15T05:06:29;20.97;;;11.97;;
15831;SDS011;8016;49.928;9.372;2024-01-15T05:08:55;23.27;;;12.33;;
15831;SDS011;8016;49.928;9.372;2024-01-15T05:11:21;25.83;;;12.90;;
15831;SDS011;8016;49.928;9.372;2024-01-15T05:13:47;23.30;;;11.97;;
15831;SDS011;8016;49.928;9.372;2024-01-15T05:16:13;21.40;;;10.80;;
15831;SDS011;8016;49.928;9.372;2024-01-15T05:18:39;24.03;;;12.33;;
15831;SDS011;8016;49.928;9.372;2024-01-15T05:21:05;27.50;;;14.67;;
15831;SDS011;8016;49.928;9.372;2024-01-15T05:23:31;21.60;;;11.53;;
15831;SDS011;8016;49.928;9.372;2024-01-15T05:25:57;20.73;;;12.27;;
15831;SDS011;8016;49.928;9.372;2024-01-15T05:28:23;21.43;;;12.30;;
15831;SDS011;8016;49.928;9.372;2024-01-15T05:30:49;21.10;;;11.70;;
15831;SDS011;8016;49.928;9.372;2024-01-15T05:33:16;26.23;;;12.60;;
15831;SDS011;8016;49.928;9.372;2024-01-15T05:35:42;20.70;;;12.03;;
15831;SDS011;8016;49.928;9.372;2024-01-15T05:38:08;23.67;;;12.17;;
15831;SDS011;8016;49.928;9.372;2024-01-15T05:40:34;17.60;;;10.73;;
15831;SDS011;8016;49.928;9.372;2024-01-15T05:43:00;23.03;;;12.07;;
15831;SDS011;8016;49.928;9.372;2024-01-15T05:45:26;20.57;;;11.20;;
15831;SDS011;8016;49.928;9.372;2024-01-15T05:47:52;20.47;;;10.90;;
15831;SDS011;8016;49.928;9.372;2024-01-15T05:50:18;20.30;;;11.43;;
15831;SDS011;8016;49.928;9.372;2024-01-15T05:52:44;19.70;;;10.83;;
15831;SDS011;8016;49.928;9.372;2024-01-15T05:55:10;19.80;;;10.73;;
15831;SDS011;8016;49.928;9.372;2024-01-15T05:57:36;17.93;;;10.57;;
15831;SDS011;8016;49.928;9.372;2024-01-15T06:00:03;21.40;;;11.47;;
15831;SDS011;8016;49.928;9.372;2024-01-15T06:02:29;22.77;;;11.27;;
15831;SDS011;8016;49.928;9.372;2024-01-15T06:04:55;20.73;;;10.57;;
15831;SDS011;8016;49.928;9.372;2024-01-15T06:07:22;20.60;;;11.80;;
15831;SDS011;8016;49.928;9.372;2024-01-15T06:09:48;21.93;;;11.90;;
15831;SDS011;8016;49.928;9.372;2024-01-15T06:12:14;21.57;;;11.33;;
15831;SDS011;8016;49.928;9.372;2024-01-15T06:14:40;21.83;;;10.77;;
15831;SDS011;8016;49.928;9.372;2024-01-15T06:17:07;22.27;;;12.17;;
15831;SDS011;8016;49.928;9.372;2024-01-15T06:19:33;18.53;;;11.90;;
15831;SDS011;8016;49.928;9.372;2024-01-15T06:21:59;22.37;;;11.50;;
15831;SDS011;8016;49.928;9.372;2024-01-15T06:24:25;20.33;;;11.07;;
15831;SDS011;8016;49.928;9.372;2024-01-15T06:26:51;21.40;;;11.10;;
15831;SDS011;8016;49.928;9.372;2024-01-15T06:29:17;22.53;;;12.60;;
15831;SDS011;8016;49.928;9.372;2024-01-15T06:31:43;22.80;;;12.57;;
15831;SDS011;8016;49.928;9.372;2024-01-15T06:34:09;22.00;;;11.47;;
15831;SDS011;8016;49.928;9.372;2024-01-15T06:36:35;19.47;;;11.77;;
15831;SDS011;8016;49.928;9.372;2024-01-15T06:39:01;25.67;;;12.93;;
15831;SDS011;8016;49.928;9.372;2024-01-15T06:41:27;21.90;;;11.67;;
15831;SDS011;8016;49.928;9.372;2024-01-15T06:43:53;19.70;;;10.97;;
15831;SDS011;8016;49.928;9.372;2024-01-15T06:46:20;20.87;;;11.87;;
15831;SDS011;8016;49.928;9.372;2024-01-15T06:48:47;20.90;;;12.00;;
15831;SDS011;8016;49.928;9.372;2024-01-15T06:51:13;23.50;;;12.73;;
15831;SDS011;8016;49.928;9.372;2024-01-15T06:53:39;22.07;;;12.37;;
15831;SDS011;8016;49.928;9.372;2024-01-15T06:56:05;22.23;;;12.17;;
15831;SDS011;8016;49.928;9.372;2024-01-15T06:58:31;35.77;;;21.07;;
15831;SDS011;8016;49.928;9.372;2024-01-15T07:00:57;20.23;;;11.77;;
15831;SDS011;8016;49.928;9.372;2024-01-15T07:03:23;23.03;;;14.10;;
15831;SDS011;8016;49.928;9.372;2024-01-15T07:05:49;24.73;;;12.63;;
15831;SDS011;8016;49.928;9.372;2024-01-15T07:08:15;32.60;;;17.93;;
15831;SDS011;8016;49.928;9.372;2024-01-15T07:10:41;20.83;;;12.70;;
15831;SDS011;8016;49.928;9.372;2024-01-15T07:13:07;19.40;;;11.87;;
15831;SDS011;8016;49.928;9.372;2024-01-15T07:15:33;23.57;;;14.27;;
15831;SDS011;8016;49.928;9.372;2024-01-15T07:17:59;27.43;;;13.90;;
15831;SDS011;8016;49.928;9.372;2024-01-15T07:20:25;24.43;;;15.17;;
15831;SDS011;8016;49.928;9.372;2024-01-15T07:22:51;25.27;;;12.97;;
15831;SDS011;8016;49.928;9.372;2024-01-15T07:25:17;22.53;;;14.07;;
15831;SDS011;8016;49.928;9.372;2024-01-15T07:27:43;19.57;;;12.40;;
15831;SDS011;8016;49.928;9.372;2024-01-15T07:30:12;22.03;;;12.57;;
15831;SDS011;8016;49.928;9.372;2024-01-15T07:32:38;19.57;;;11.77;;
15831;SDS011;8016;49.928;9.372;2024-01-15T07:35:05;25.37;;;13.73;;
15831;SDS011;8016;49.928;9.372;2024-01-15T07:37:31;19.93;;;12.33;;
15831;SDS011;8016;49.928;9.372;2024-01-15T07:39:58;20.50;;;13.00;;
15831;SDS011;8016;49.928;9.372;2024-01-15T07:42:25;18.23;;;11.60;;
15831;SDS011;8016;49.928;9.372;2024-01-15T07:44:51;20.80;;;12.93;;
15831;SDS011;8016;49.928;9.372;2024-01-15T07:47:17;21.23;;;13.13;;
15831;SDS011;8016;49.928;9.372;2024-01-15T07:49:43;19.63;;;14.27;;
15831;SDS011;8016;49.928;9.372;2024-01-15T07:52:09;27.37;;;21.80;;
15831;SDS011;8016;49.928;9.372;2024-01-15T07:54:36;22.13;;;14.10;;
15831;SDS011;8016;49.928;9.372;2024-01-15T07:57:02;32.43;;;18.23;;
15831;SDS011;8016;49.928;9.372;2024-01-15T07:59:28;27.87;;;16.17;;
15831;SDS011;8016;49.928;9.372;2024-01-15T08:01:54;22.20;;;13.43;;
15831;SDS011;8016;49.928;9.372;2024-01-15T08:04:20;26.90;;;16.13;;
15831;SDS011;8016;49.928;9.372;2024-01-15T08:06:49;20.73;;;12.80;;
15831;SDS011;8016;49.928;9.372;2024-01-15T08:09:15;17.87;;;12.00;;
15831;SDS011;8016;49.928;9.372;2024-01-15T08:11:41;27.47;;;14.90;;
15831;SDS011;8016;49.928;9.372;2024-01-15T08:14:08;22.33;;;13.40;;
15831;SDS011;8016;49.928;9.372;2024-01-15T08:16:34;19.00;;;11.93;;
15831;SDS011;8016;49.928;9.372;2024-01-15T08:19:01;24.47;;;13.77;;
15831;SDS011;8016;49.928;9.372;2024-01-15T08:21:27;27.17;;;16.70;;
15831;SDS011;8016;49.928;9.372;2024-01-15T08:23:55;21.33;;;14.57;;
15831;SDS011;8016;49.928;9.372;2024-01-15T08:26:20;34.97;;;23.20;;
15831;SDS011;8016;49.928;9.372;2024-01-15T08:28:47;21.87;;;14.17;;
15831;SDS011;8016;49.928;9.372;2024-01-15T08:31:13;26.43;;;19.17;;
15831;SDS011;8016;49.928;9.372;2024-01-15T08:33:39;28.67;;;18.53;;
15831;SDS011;8016;49.928;9.372;2024-01-15T08:36:05;31.37;;;20.43;;
15831;SDS011;8016;49.928;9.372;2024-01-15T08:38:31;34.13;;;21.73;;
15831;SDS011;8016;49.928;9.372;2024-01-15T08:40:57;20.80;;;12.73;;
15831;SDS011;8016;49.928;9.372;2024-01-15T08:43:25;19.77;;;12.03;;
15831;SDS011;8016;49.928;9.372;2024-01-15T08:45:51;24.30;;;13.97;;
15831;SDS011;8016;49.928;9.372;2024-01-15T08:48:17;18.60;;;13.27;;
15831;SDS011;8016;49.928;9.372;2024-01-15T08:50:43;24.48;;;14.02;;
15831;SDS011;8016;49.928;9.372;2024-01-15T08:53:12;22.53;;;14.27;;
15831;SDS011;8016;49.928;9.372;2024-01-15T08:55:38;18.40;;;11.87;;
15831;SDS011;8016;49.928;9.372;2024-01-15T08:58:04;19.00;;;12.47;;
15831;SDS011;8016;49.928;9.372;2024-01-15T09:00:31;21.50;;;13.27;;
15831;SDS011;8016;49.928;9.372;2024-01-15T09:02:57;27.13;;;17.88;;
15831;SDS011;8016;49.928;9.372;2024-01-15T09:05:23;30.07;;;16.83;;
15831;SDS011;8016;49.928;9.372;2024-01-15T09:07:49;20.13;;;12.43;;
15831;SDS011;8016;49.928;9.372;2024-01-15T09:10:17;19.83;;;13.40;;
15831;SDS011;8016;49.928;9.372;2024-01-15T09:12:43;23.33;;;14.70;;
15831;SDS011;8016;49.928;9.372;2024-01-15T09:15:09;67.47;;;31.17;;
15831;SDS011;8016;49.928;9.372;2024-01-15T09:17:34;21.00;;;13.97;;
15831;SDS011;8016;49.928;9.372;2024-01-15T09:20:00;23.03;;;14.20;;
15831;SDS011;8016;49.928;9.372;2024-01-15T09:22:27;16.90;;;12.73;;
15831;SDS011;8016;49.928;9.372;2024-01-15T09:24:53;18.03;;;11.53;;
15831;SDS011;8016;49.928;9.372;2024-01-15T09:27:19;20.33;;;11.70;;
15831;SDS011;8016;49.928;9.372;2024-01-15T09:29:45;23.33;;;15.40;;
15831;SDS011;8016;49.928;9.372;2024-01-15T09:32:11;21.73;;;15.55;;
15831;SDS011;8016;49.928;9.372;2024-01-15T09:34:37;19.93;;;13.30;;
15831;SDS011;8016;49.928;9.372;2024-01-15T09:37:03;19.33;;;11.77;;
15831;SDS011;8016;49.928;9.372;2024-01-15T09:39:30;18.13;;;11.87;;
15831;SDS011;8016;49.928;9.372;2024-01-15T09:41:56;17.77;;;13.43;;
15831;SDS011;8016;49.928;9.372;2024-01-15T09:44:23;16.87;;;10.57;;
15831;SDS011;8016;49.928;9.372;2024-01-15T09:46:49;20.60;;;12.50;;
15831;SDS011;8016;49.928;9.372;2024-01-15T09:49:15;16.50;;;11.03;;
15831;SDS011;8016;49.928;9.372;2024-01-15T09:51:42;17.80;;;11.03;;
15831;SDS011;8016;49.928;9.372;2024-01-15T09:54:08;20.67;;;11.83;;
15831;SDS011;8016;49.928;9.372;2024-01-15T09:56:35;20.17;;;12.53;;
15831;SDS011;8016;49.928;9.372;2024-01-15T09:59:01;19.07;;;12.30;;
15831;SDS011;8016;49.928;9.372;2024-01-15T10:01:29;17.07;;;10.63;;
15831;SDS011;8016;49.928;9.372;2024-01-15T10:03:57;21.40;;;14.37;;
15831;SDS011;8016;49.928;9.372;2024-01-15T10:06:23;17.63;;;10.07;;
15831;SDS011;8016;49.928;9.372;2024-01-15T10:08:52;17.97;;;11.60;;
15831;SDS011;8016;49.928;9.372;2024-01-15T10:11:19;18.90;;;11.23;;
15831;SDS011;8016;49.928;9.372;2024-01-15T10:13:46;16.87;;;11.27;;
15831;SDS011;8016;49.928;9.372;2024-01-15T10:16:12;16.87;;;10.97;;
15831;SDS011;8016;49.928;9.372;2024-01-15T10:18:38;23.80;;;16.10;;
15831;SDS011;8016;49.928;9.372;2024-01-15T10:21:07;29.93;;;21.07;;
15831;SDS011;8016;49.928;9.372;2024-01-15T10:23:33;20.03;;;12.67;;
15831;SDS011;8016;49.928;9.372;2024-01-15T10:26:01;19.63;;;10.57;;
15831;SDS011;8016;49.928;9.372;2024-01-15T10:28:27;21.80;;;11.03;;
15831;SDS011;8016;49.928;9.372;2024-01-15T10:30:55;15.13;;;9.60;;
15831;SDS011;8016;49.928;9.372;2024-01-15T10:33:22;15.87;;;10.80;;
15831;SDS011;8016;49.928;9.372;2024-01-15T10:35:54;17.17;;;9.57;;
15831;SDS011;8016;49.928;9.372;2024-01-15T10:38:20;19.03;;;12.07;;
15831;SDS011;8016;49.928;9.372;2024-01-15T10:40:47;18.40;;;12.07;;
15831;SDS011;8016;49.928;9.372;2024-01-15T10:43:13;16.60;;;10.50;;
15831;SDS011;8016;49.928;9.372;2024-01-15T10:45:39;13.27;;;9.20;;
15831;SDS011;8016;49.928;9.372;2024-01-15T10:48:06;16.90;;;11.67;;
15831;SDS011;8016;49.928;9.372;2024-01-15T10:50:32;16.43;;;11.13;;
15831;SDS011;8016;49.928;9.372;2024-01-15T10:52:59;16.90;;;11.53;;
15831;SDS011;8016;49.928;9.372;2024-01-15T10:55:25;16.07;;;10.33;;
15831;SDS011;8016;49.928;9.372;2024-01-15T10:57:51;13.67;;;10.47;;
15831;SDS011;8016;49.928;9.372;2024-01-15T11:00:17;16.37;;;11.10;;
15831;SDS011;8016;49.928;9.372;2024-01-15T11:02:44;17.13;;;10.10;;
15831;SDS011;8016;49.928;9.372;2024-01-15T11:05:10;19.60;;;11.67;;
15831;SDS011;8016;49.928;9.372;2024-01-15T11:07:36;16.67;;;11.50;;
15831;SDS011;8016;49.928;9.372;2024-01-15T11:10:05;14.27;;;11.50;;
15831;SDS011;8016;49.928;9.372;2024-01-15T11:12:32;16.37;;;10.83;;
15831;SDS011;8016;49.928;9.372;2024-01-15T11:15:02;21.37;;;15.73;;
15831;SDS011;8016;49.928;9.372;2024-01-15T11:20:19;13.97;;;10.23;;
15831;SDS011;8016;49.928;9.372;2024-01-15T11:22:48;21.63;;;12.97;;
15831;SDS011;8016;49.928;9.372;2024-01-15T11:25:14;19.57;;;12.80;;
15831;SDS011;8016;49.928;9.372;2024-01-15T11:27:45;25.53;;;14.70;;
15831;SDS011;8016;49.928;9.372;2024-01-15T11:30:18;32.27;;;22.07;;
15831;SDS011;8016;49.928;9.372;2024-01-15T11:32:47;27.37;;;17.43;;
15831;SDS011;8016;49.928;9.372;2024-01-15T11:35:13;21.17;;;13.43;;
15831;SDS011;8016;49.928;9.372;2024-01-15T11:40:23;16.60;;;12.20;;
15831;SDS011;8016;49.928;9.372;2024-01-15T11:43:02;17.93;;;13.97;;
15831;SDS011;8016;49.928;9.372;2024-01-15T11:45:28;22.93;;;13.93;;
15831;SDS011;8016;49.928;9.372;2024-01-15T11:50:21;14.17;;;9.93;;
15831;SDS011;8016;49.928;9.372;2024-01-15T11:52:51;15.75;;;13.00;;
15831;SDS011;8016;49.928;9.372;2024-01-15T11:57:53;12.47;;;9.40;;
15831;SDS011;8016;49.928;9.372;2024-01-15T12:00:20;15.73;;;10.30;;
15831;SDS011;8016;49.928;9.372;2024-01-15T12:02:47;15.90;;;10.33;;
15831;SDS011;8016;49.928;9.372;2024-01-15T12:05:14;14.70;;;9.73;;
15831;SDS011;8016;49.928;9.372;2024-01-15T12:07:41;15.37;;;10.07;;
15831;SDS011;8016;49.928;9.372;2024-01-15T12:10:10;14.73;;;9.43;;
15831;SDS011;8016;49.928;9.372;2024-01-15T12:15:05;17.00;;;13.07;;
15831;SDS011;8016;49.928;9.372;2024-01-15T12:17:31;16.17;;;10.70;;
15831;SDS011;8016;49.928;9.372;2024-01-15T12:19:57;14.07;;;10.00;;
15831;SDS011;8016;49.928;9.372;2024-01-15T12:22:23;15.80;;;11.73;;
15831;SDS011;8016;49.928;9.372;2024-01-15T12:24:49;18.93;;;10.43;;
15831;SDS011;8016;49.928;9.372;2024-01-15T12:27:15;14.30;;;11.00;;
15831;SDS011;8016;49.928;9.372;2024-01-15T12:29:41;13.37;;;10.17;;
15831;SDS011;8016;49.928;9.372;2024-01-15T12:32:08;13.07;;;9.57;;
15831;SDS011;8016;49.928;9.372;2024-01-15T12:34:34;22.83;;;14.83;;
15831;SDS011;8016;49.928;9.372;2024-01-15T12:37:00;19.17;;;13.03;;
15831;SDS011;8016;49.928;9.372;2024-01-15T12:39:26;15.37;;;11.03;;
15831;SDS011;8016;49.928;9.372;2024-01-15T12:41:52;16.37;;;12.37;;
15831;SDS011;8016;49.928;9.372;2024-01-15T12:44:18;19.40;;;13.13;;
15831;SDS011;8016;49.928;9.372;2024-01-15T12:46:44;13.13;;;10.13;;
15831;SDS011;8016;49.928;9.372;2024-01-15T12:49:10;16.33;;;12.10;;
15831;SDS011;8016;49.928;9.372;2024-01-15T12:51:38;20.47;;;14.37;;
15831;SDS011;8016;49.928;9.372;2024-01-15T12:54:04;22.57;;;15.93;;
15831;SDS011;8016;49.928;9.372;2024-01-15T12:56:30;19.53;;;12.97;;
15831;SDS011;8016;49.928;9.372;2024-01-15T12:58:56;20.10;;;12.50;;
15831;SDS011;8016;49.928;9.372;2024-01-15T13:01:22;16.47;;;9.90;;
15831;SDS011;8016;49.928;9.372;2024-01-15T13:03:48;17.07;;;11.37;;
15831;SDS011;8016;49.928;9.372;2024-01-15T13:06:14;13.97;;;10.37;;
15831;SDS011;8016;49.928;9.372;2024-01-15T13:08:40;16.90;;;11.67;;
15831;SDS011;8016;49.928;9.372;2024-01-15T13:11:06;16.73;;;11.40;;
15831;SDS011;8016;49.928;9.372;2024-01-15T13:13:32;15.43;;;9.40;;
15831;SDS011;8016;49.928;9.372;2024-01-15T13:15:59;18.77;;;13.67;;
15831;SDS011;8016;49.928;9.372;2024-01-15T13:18:25;17.60;;;10.50;;
15831;SDS011;8016;49.928;9.372;2024-01-15T13:20:51;21.37;;;14.83;;
15831;SDS011;8016;49.928;9.372;2024-01-15T13:23:17;17.43;;;11.93;;
15831;SDS011;8016;49.928;9.372;2024-01-15T13:25:43;17.33;;;9.40;;
15831;SDS011;8016;49.928;9.372;2024-01-15T13:28:09;12.47;;;9.00;;
15831;SDS011;8016;49.928;9.372;2024-01-15T13:30:35;13.80;;;10.20;;
15831;SDS011;8016;49.928;9.372;2024-01-15T13:33:01;15.33;;;10.37;;
15831;SDS011;8016;49.928;9.372;2024-01-15T13:35:29;20.73;;;15.40;;
15831;SDS011;8016;49.928;9.372;2024-01-15T13:37:55;15.90;;;10.47;;
15831;SDS011;8016;49.928;9.372;2024-01-15T13:40:21;20.70;;;16.77;;
15831;SDS011;8016;49.928;9.372;2024-01-15T13:42:47;15.07;;;10.90;;
15831;SDS011;8016;49.928;9.372;2024-01-15T13:45:14;22.23;;;15.30;;
15831;SDS011;8016;49.928;9.372;2024-01-15T13:47:40;24.07;;;15.77;;
15831;SDS011;8016;49.928;9.372;2024-01-15T13:50:08;14.93;;;10.43;;
15831;SDS011;8016;49.928;9.372;2024-01-15T13:52:34;15.43;;;10.13;;
15831;SDS011;8016;49.928;9.372;2024-01-15T13:55:00;19.27;;;12.60;;
15831;SDS011;8016;49.928;9.372;2024-01-15T13:57:26;22.27;;;15.53;;
15831;SDS011;8016;49.928;9.372;2024-01-15T13:59:52;20.33;;;11.27;;
15831;SDS011;8016;49.928;9.372;2024-01-15T14:02:18;12.90;;;9.97;;
15831;SDS011;8016;49.928;9.372;2024-01-15T14:04:45;14.67;;;9.93;;
15831;SDS011;8016;49.928;9.372;2024-01-15T14:07:11;16.40;;;10.80;;
15831;SDS011;8016;49.928;9.372;2024-01-15T14:09:37;14.33;;;9.33;;
15831;SDS011;8016;49.928;9.372;2024-01-15T14:12:03;12.87;;;9.07;;
15831;SDS011;8016;49.928;9.372;2024-01-15T14:14:29;15.30;;;10.20;;
15831;SDS011;8016;49.928;9.372;2024-01-15T14:16:55;14.47;;;10.53;;
15831;SDS011;8016;49.928;9.372;2024-01-15T14:19:21;11.97;;;8.17;;
15831;SDS011;8016;49.928;9.372;2024-01-15T14:21:47;25.70;;;15.17;;
15831;SDS011;8016;49.928;9.372;2024-01-15T14:24:13;20.50;;;14.40;;
15831;SDS011;8016;49.928;9.372;2024-01-15T14:26:40;24.50;;;15.73;;
15831;SDS011;8016;49.928;9.372;2024-01-15T14:29:06;34.70;;;20.30;;
15831;SDS011;8016;49.928;9.372;2024-01-15T14:31:32;13.60;;;9.13;;
15831;SDS011;8016;49.928;9.372;2024-01-15T14:33:59;14.80;;;10.03;;
15831;SDS011;8016;49.928;9.372;2024-01-15T14:36:25;14.50;;;9.13;;
15831;SDS011;8016;49.928;9.372;2024-01-15T14:38:51;13.93;;;8.93;;
15831;SDS011;8016;49.928;9.372;2024-01-15T14:41:17;17.53;;;13.17;;
15831;SDS011;8016;49.928;9.372;2024-01-15T14:43:43;14.17;;;10.23;;